Flight Track Log - Related Links

Times and Time Zones

All times are in EDT time to prevent confusion due to time zone crossing. See the SWA2103 flight status page for this flight to view local times or setup timezone preferences in your user account.

Time Position Orientation Groundspeed Altitude Reporting Facility
EDT Latitude Longitude Course Direction KTS MPH feet Rate Location/Type
Sat 06:58:30 PM 36.0833 -86.6833 180° South 172 198 2,100  Level Nashville TRACON
Sat 06:59:30 PM 36.0500 -86.6333 129° Southeast 239 275 5,700 3,658 Climbing Nashville TRACON
Sat 07:00:56 PM 36.0411 -86.5269 96° East 274 315 11,000 3,452 Climbing Memphis Center
Sat 07:01:56 PM 36.0794 -86.4225 66° East 304 350 14,100 3,100 Climbing Memphis Center
Sat 07:02:56 PM 36.1194 -86.3050 67° East 353 406 17,200 3,550 Climbing Memphis Center
Sat 07:03:56 PM 36.1614 -86.1847 67° East 376 433 21,200 3,194 Climbing Memphis Center
Sat 07:06:17 PM 36.2789 -85.8947 63° Northeast 410 472 27,900 2,584 Climbing Indianapolis Center
Sat 07:07:18 PM 36.3233 -85.7717 66° East 422 486 29,900 2,213 Climbing Indianapolis Center
Sat 07:08:19 PM 36.3792 -85.6061 67° East 431 496 32,400 1,574 Climbing Indianapolis Center
Sat 07:09:20 PM 36.4264 -85.4639 68° East 442 509 33,100 293 Climbing Indianapolis Center
Sat 07:10:22 PM 36.4753 -85.3211 67° East 445 512 33,000 -49 Descending Indianapolis Center
Sat 07:11:23 PM 36.5217 -85.1797 68° East 441 507 33,000  Level Indianapolis Center
Sat 07:12:24 PM 36.5686 -85.0389 67° East 438 504 33,000 787 Level Indianapolis Center
Sat 07:13:25 PM 36.6156 -84.8956 68° East 444 511 34,600 1,623 Climbing Indianapolis Center
Sat 07:14:26 PM 36.6628 -84.7508 68° East 451 519 36,300 1,426 Climbing Indianapolis Center
Sat 07:15:27 PM 36.7106 -84.6047 68° East 455 524 37,500 1,024 Climbing Indianapolis Center
Sat 07:16:29 PM 36.7586 -84.4547 68° East 473 544 38,400 732 Climbing Indianapolis Center
Sat 07:17:30 PM 36.8114 -84.2972 67° East 490 564 39,000 295 Climbing Indianapolis Center
Sat 07:18:31 PM 36.8611 -84.1397 68° East 491 565 39,000  Level Indianapolis Center
Sat 07:19:32 PM 36.9200 -83.9572 68° East 488 562 39,000 984 Level Indianapolis Center
Sat 07:20:33 PM 36.9692 -83.8056 68° East 475 547 41,000 984 Climbing Indianapolis Center
Sat 07:21:34 PM 37.0158 -83.6572 68° East 459 528 41,000  Level Indianapolis Center
Sat 07:22:35 PM 37.0617 -83.5094 69° East 456 525 41,000  Level Indianapolis Center
Sat 07:23:37 PM 37.1086 -83.3639 68° East 450 518 41,000  Level Indianapolis Center
Sat 07:24:38 PM 37.1556 -83.2164 68° East 451 519 41,000  Level Indianapolis Center
Sat 07:25:39 PM 37.2006 -83.0678 69° East 452 520 41,000  Level Indianapolis Center
Sat 07:26:40 PM 37.2461 -82.9211 69° East 451 519 41,000  Level Indianapolis Center
Sat 07:27:41 PM 37.2917 -82.7736 69° East 451 519 41,000  Level Indianapolis Center
Sat 07:28:42 PM 37.3369 -82.6269 69° East 449 517 41,000  Level Indianapolis Center
Sat 07:29:43 PM 37.3819 -82.4797 69° East 449 517 41,000  Level Indianapolis Center
Sat 07:30:44 PM 37.4256 -82.3317 70° East 450 518 41,000  Level Indianapolis Center
Sat 07:31:45 PM 37.4706 -82.1850 69° East 449 517 41,000  Level Indianapolis Center
Sat 07:32:47 PM 37.5144 -82.0353 70° East 452 520 41,000  Level Indianapolis Center
Sat 07:33:48 PM 37.5592 -81.8872 69° East 452 520 41,000  Level Indianapolis Center
Sat 07:34:49 PM 37.6106 -81.7128 70° East 454 522 41,000  Level Indianapolis Center
Sat 07:35:50 PM 37.6542 -81.5636 70° East 453 521 41,000  Level Indianapolis Center
Sat 07:36:51 PM 37.6983 -81.4086 70° East 455 524 41,000  Level Indianapolis Center
Sat 07:37:25 PM 37.7139 -81.3439 73° East 454 522 41,000  Level Washington Center
Sat 07:38:26 PM 37.7614 -81.1794 70° East 459 528 41,000  Level Washington Center
Sat 07:39:25 PM 37.7872 -81.0261 78° East 452 520 41,000  Level Washington Center
Sat 07:40:26 PM 37.7961 -80.8744 86° East 441 507 41,000  Level Washington Center
Sat 07:41:28 PM 37.8069 -80.7200 85° East 441 507 41,000  Level Washington Center
Sat 07:42:25 PM 37.8172 -80.5786 85° East 441 507 41,000  Level Washington Center
Sat 07:43:27 PM 37.8256 -80.4242 86° East 441 507 41,000  Level Washington Center
Sat 07:44:25 PM 37.8358 -80.2722 85° East 441 507 41,000  Level Washington Center
Sat 07:45:25 PM 37.8458 -80.1178 85° East 441 507 41,000  Level Washington Center
Sat 07:46:26 PM 37.8558 -79.9606 85° East 441 507 41,000  Level Washington Center
Sat 07:47:28 PM 37.8661 -79.7900 86° East 441 507 41,000  Level Washington Center
Sat 07:48:25 PM 37.8758 -79.6353 85° East 441 507 41,000  Level Washington Center
Sat 07:49:26 PM 37.8869 -79.4808 85° East 441 507 41,000  Level Washington Center
Sat 07:50:27 PM 37.8919 -79.3283 88° East 441 507 41,000  Level Washington Center
Sat 07:51:28 PM 37.9008 -79.1736 86° East 441 507 41,000  Level Washington Center
Sat 07:52:25 PM 37.9136 -79.0214 84° East 441 507 41,000  Level Washington Center
Sat 07:53:25 PM 37.9322 -78.8828 80° East 441 507 41,000  Level Washington Center
Sat 07:54:26 PM 37.9486 -78.7308 82° East 441 507 41,000  Level Washington Center
Sat 07:55:25 PM 37.9694 -78.5761 80° East 441 507 41,000  Level Washington Center
Sat 07:56:25 PM 37.9856 -78.4239 82° East 441 507 41,000  Level Washington Center
Sat 07:57:25 PM 38.0061 -78.2561 81° East 448 516 41,000  Level Washington Center
Sat 07:58:28 PM 38.0172 -78.1194 84° East 442 509 41,000  Level Washington Center
Sat 07:59:25 PM 38.0244 -77.9747 86° East 435 501 41,000  Level Washington Center
Sat 08:00:27 PM 38.0336 -77.8222 86° East 422 486 41,000  Level Washington Center
Sat 08:01:25 PM 38.0428 -77.6694 86° East 422 486 41,000  Level Washington Center
Sat 08:02:27 PM 38.0536 -77.5142 85° East 428 493 41,000  Level Washington Center
Sat 08:03:25 PM 38.0850 -77.3672 75° East 428 493 41,000  Level Washington Center
Sat 08:04:25 PM 38.1164 -77.2147 75° East 433 498 41,000  Level Washington Center
Sat 08:05:26 PM 38.1497 -77.0625 74° East 438 504 41,000  Level Washington Center
Sat 08:06:26 PM 38.1825 -76.9125 74° East 438 504 41,000  Level Washington Center
Sat 08:07:25 PM 38.2133 -76.7597 76° East 438 504 41,000  Level Washington Center
Sat 08:08:25 PM 38.2481 -76.6097 74° East 438 504 41,000  Level Washington Center
Sat 08:09:26 PM 38.3431 -76.4839 46° Northeast 416 479 41,000  Level Washington Center
Sat 08:10:26 PM 38.4333 -76.3789 42° Northeast 430 495 41,000 -446 Level Washington Center
Sat 08:11:27 PM 38.5258 -76.2736 42° Northeast 436 502 40,100 -1,765 Descending Washington Center
Sat 08:12:25 PM 38.6181 -76.1656 42° Northeast 436 502 37,500 -2,622 Descending Washington Center
Sat 08:13:26 PM 38.7039 -76.0731 40° Northeast 444 511 34,900 -3,000 Descending Washington Center
Sat 08:14:27 PM 38.7961 -75.9644 43° Northeast 444 511 31,400 -3,176 Descending Washington Center
Sat 08:15:25 PM 38.8858 -75.8583 43° Northeast 439 505 28,600 -2,218 Descending Washington Center
Sat 08:16:26 PM 38.9736 -75.7597 41° Northeast 432 497 27,000 -787 Descending Washington Center
Sat 08:17:27 PM 39.0656 -75.6744 36° Northeast 421 484 27,000  Level Washington Center
Sat 08:18:25 PM 39.1572 -75.5889 36° Northeast 409 471 27,000  Level Washington Center
Sat 08:19:25 PM 39.2489 -75.5006 37° Northeast 409 471 27,000  Level Washington Center
Sat 08:20:25 PM 39.3447 -75.4172 34° Northeast 404 465 27,000  Level Washington Center
Sat 08:21:28 PM 39.4383 -75.3336 35° Northeast 404 465 27,000 -50 Level Washington Center
Sat 08:22:25 PM 39.5317 -75.2497 35° Northeast 404 465 26,900 -1,322 Descending Washington Center
Sat 08:23:26 PM 39.6211 -75.1631 37° Northeast 404 465 24,400 -2,557 Descending Washington Center
Sat 08:24:27 PM 39.7186 -75.0789 34° Northeast 395 455 21,700 -2,420 Descending Washington Center
Sat 08:25:25 PM 39.7933 -75.0136 34° Northeast 367 422 19,600 -2,100 Descending Washington Center
Sat 08:26:27 PM 39.8825 -74.9344 34° Northeast 357 411 17,500 -2,250 Descending Washington Center
Sat 08:27:25 PM 39.9569 -74.8497 41° Northeast 356 410 15,100 -2,370 Descending Washington Center
Sat 08:28:26 PM 40.0169 -74.7625 48° Northeast 335 386 12,800 -2,250 Descending Washington Center
Sat 08:28:53 PM 40.0500 -74.7167 47° Northeast 325 374 11,800 -2,074 Descending New York TRACON
Sat 08:29:47 PM 40.1000 -74.6500 46° Northeast 317 365 10,000 -947 Descending New York TRACON
Sat 08:30:47 PM 40.1500 -74.5667 52° Northeast 279 321 10,000  Level New York TRACON
Sat 08:31:41 PM 40.2167 -74.5167 30° Northeast 289 333 10,000  Level New York TRACON
Sat 08:32:47 PM 40.2833 -74.4333 44° Northeast 301 346 10,000  Level New York TRACON
Sat 08:33:53 PM 40.3500 -74.3500 44° Northeast 301 346 10,000  Level New York TRACON
Sat 08:34:53 PM 40.4167 -74.2833 37° Northeast 300 345 10,000 -105 Level New York TRACON
Sat 08:35:47 PM 40.4667 -74.2167 45° Northeast 288 331 9,800 -950 Descending New York TRACON
Sat 08:36:53 PM 40.5333 -74.1500 37° Northeast 263 303 8,100 -1,600 Descending New York TRACON
Sat 08:37:47 PM 40.5833 -74.1000 37° Northeast 253 291 6,600 -1,579 Descending New York TRACON
Sat 08:38:47 PM 40.6333 -74.0333 45° Northeast 243 280 5,100 -1,350 Descending New York TRACON
Sat 08:39:47 PM 40.7000 -74.0333 360° North 237 273 3,900 -1,050 Descending New York TRACON
Sat 08:40:47 PM 40.7500 -74.0167 14° North 221 254 3,000 -474 Descending New York TRACON
Sat 08:41:41 PM 40.8000 -73.9833 27° Northeast 209 241 3,000 -50 Level New York TRACON
Sat 08:42:47 PM 40.8500 -73.9500 27° Northeast 192 221 2,900 -524 Descending New York TRACON
Sat 08:43:47 PM 40.8667 -73.8833 72° East 185 213 1,900 -800 Descending New York TRACON
Sat 08:44:47 PM 40.8500 -73.8500 123° Southeast 128 147 1,300 -524 Descending New York TRACON
Sat 08:45:53 PM 40.8167 -73.8333 159° South 128 147 800 -550 Descending New York TRACON
Sat 08:46:47 PM 40.8000 -73.8667 237° Southwest 123 142 200 -667 Descending New York TRACON

Login

Don't have an account? Register now (free) for customized features, flight alerts, and more!